sensor_id;sensor_type;location;lat;lon;timestamp;pressure;altitude;pressure_sealevel;temperature;humidity
11985;BME280;6052;53.246;10.368;2024-02-26T00:01:56;99875.75;;;6.45;100.00
11985;BME280;6052;53.246;10.368;2024-02-26T00:04:26;99878.44;;;6.45;100.00
11985;BME280;6052;53.246;10.368;2024-02-26T00:06:56;99885.72;;;6.38;100.00
11985;BME280;6052;53.246;10.368;2024-02-26T00:09:26;99875.28;;;6.36;100.00
11985;BME280;6052;53.246;10.368;2024-02-26T00:11:55;99870.88;;;6.30;100.00
11985;BME280;6052;53.246;10.368;2024-02-26T00:14:26;99875.63;;;6.28;100.00
11985;BME280;6052;53.246;10.368;2024-02-26T00:16:59;99864.97;;;6.40;100.00
11985;BME280;6052;53.246;10.368;2024-02-26T00:19:29;99869.63;;;6.44;100.00
11985;BME280;6052;53.246;10.368;2024-02-26T00:21:59;99881.78;;;6.40;100.00
11985;BME280;6052;53.246;10.368;2024-02-26T00:24:29;99874.38;;;6.42;100.00
11985;BME280;6052;53.246;10.368;2024-02-26T00:26:59;99869.63;;;6.44;100.00
11985;BME280;6052;53.246;10.368;2024-02-26T00:29:29;99871.00;;;6.35;100.00
11985;BME280;6052;53.246;10.368;2024-02-26T00:32:01;99875.84;;;6.27;100.00
11985;BME280;6052;53.246;10.368;2024-02-26T00:34:31;99883.38;;;6.30;100.00
11985;BME280;6052;53.246;10.368;2024-02-26T00:37:01;99874.72;;;6.34;100.00
11985;BME280;6052;53.246;10.368;2024-02-26T00:39:31;99871.47;;;6.32;100.00
11985;BME280;6052;53.246;10.368;2024-02-26T00:42:01;99870.16;;;6.23;100.00
11985;BME280;6052;53.246;10.368;2024-02-26T00:44:31;99870.06;;;6.30;100.00
11985;BME280;6052;53.246;10.368;2024-02-26T00:47:03;99868.31;;;6.24;100.00
11985;BME280;6052;53.246;10.368;2024-02-26T00:49:33;99869.13;;;6.24;100.00
11985;BME280;6052;53.246;10.368;2024-02-26T00:52:04;99867.97;;;6.20;100.00
11985;BME280;6052;53.246;10.368;2024-02-26T00:54:34;99867.28;;;6.25;100.00
11985;BME280;6052;53.246;10.368;2024-02-26T00:57:04;99868.53;;;6.22;100.00
11985;BME280;6052;53.246;10.368;2024-02-26T00:59:34;99872.59;;;6.25;100.00
11985;BME280;6052;53.246;10.368;2024-02-26T01:02:06;99879.25;;;6.04;100.00
11985;BME280;6052;53.246;10.368;2024-02-26T01:04:36;99881.34;;;6.02;100.00
11985;BME280;6052;53.246;10.368;2024-02-26T01:07:06;99872.78;;;6.00;100.00
11985;BME280;6052;53.246;10.368;2024-02-26T01:09:37;99880.28;;;5.92;100.00
11985;BME280;6052;53.246;10.368;2024-02-26T01:12:06;99883.28;;;5.84;100.00
11985;BME280;6052;53.246;10.368;2024-02-26T01:14:36;99886.56;;;5.97;100.00
11985;BME280;6052;53.246;10.368;2024-02-26T01:17:09;99888.59;;;5.84;100.00
11985;BME280;6052;53.246;10.368;2024-02-26T01:19:39;99892.44;;;5.70;100.00
11985;BME280;6052;53.246;10.368;2024-02-26T01:22:09;99891.41;;;5.71;100.00
11985;BME280;6052;53.246;10.368;2024-02-26T01:24:39;99890.66;;;5.82;100.00
11985;BME280;6052;53.246;10.368;2024-02-26T01:27:09;99887.81;;;5.77;100.00
11985;BME280;6052;53.246;10.368;2024-02-26T01:29:39;99888.19;;;5.51;100.00
11985;BME280;6052;53.246;10.368;2024-02-26T01:32:12;99882.66;;;4.98;100.00
11985;BME280;6052;53.246;10.368;2024-02-26T01:34:42;99873.91;;;5.45;100.00
11985;BME280;6052;53.246;10.368;2024-02-26T01:37:12;99889.44;;;5.48;100.00
11985;BME280;6052;53.246;10.368;2024-02-26T01:39:42;99884.84;;;5.55;100.00
11985;BME280;6052;53.246;10.368;2024-02-26T01:42:12;99884.47;;;5.52;100.00
11985;BME280;6052;53.246;10.368;2024-02-26T01:44:42;99874.28;;;5.49;100.00
11985;BME280;6052;53.246;10.368;2024-02-26T01:47:14;99876.22;;;5.42;100.00
11985;BME280;6052;53.246;10.368;2024-02-26T01:49:45;99874.31;;;5.31;100.00
11985;BME280;6052;53.246;10.368;2024-02-26T01:52:15;99879.84;;;5.29;100.00
11985;BME280;6052;53.246;10.368;2024-02-26T01:54:46;99889.78;;;5.22;100.00
11985;BME280;6052;53.246;10.368;2024-02-26T01:57:16;99885.47;;;5.39;100.00
11985;BME280;6052;53.246;10.368;2024-02-26T01:59:46;99888.19;;;5.51;100.00
11985;BME280;6052;53.246;10.368;2024-02-26T02:02:19;99893.38;;;5.46;100.00
11985;BME280;6052;53.246;10.368;2024-02-26T02:04:49;99895.19;;;5.45;100.00
11985;BME280;6052;53.246;10.368;2024-02-26T02:07:19;99891.47;;;5.35;100.00
11985;BME280;6052;53.246;10.368;2024-02-26T02:09:50;99892.94;;;5.31;100.00
11985;BME280;6052;53.246;10.368;2024-02-26T02:12:21;99902.28;;;5.51;100.00
11985;BME280;6052;53.246;10.368;2024-02-26T02:14:51;99895.00;;;5.29;100.00
11985;BME280;6052;53.246;10.368;2024-02-26T02:17:23;99904.97;;;5.33;100.00
11985;BME280;6052;53.246;10.368;2024-02-26T02:19:53;99899.44;;;5.35;100.00
11985;BME280;6052;53.246;10.368;2024-02-26T02:22:25;99900.31;;;5.47;100.00
11985;BME280;6052;53.246;10.368;2024-02-26T02:24:55;99902.16;;;5.46;100.00
11985;BME280;6052;53.246;10.368;2024-02-26T02:27:26;99902.00;;;5.41;100.00
11985;BME280;6052;53.246;10.368;2024-02-26T02:29:56;99891.22;;;5.36;100.00
11985;BME280;6052;53.246;10.368;2024-02-26T02:32:26;99890.56;;;5.41;100.00
11985;BME280;6052;53.246;10.368;2024-02-26T02:34:57;99898.75;;;5.39;100.00
11985;BME280;6052;53.246;10.368;2024-02-26T02:37:29;99896.03;;;5.46;100.00
11985;BME280;6052;53.246;10.368;2024-02-26T02:39:59;99893.66;;;5.38;100.00
11985;BME280;6052;53.246;10.368;2024-02-26T02:42:29;99895.13;;;5.34;100.00
11985;BME280;6052;53.246;10.368;2024-02-26T02:44:59;99898.47;;;5.11;100.00
11985;BME280;6052;53.246;10.368;2024-02-26T02:47:29;99889.38;;;5.19;100.00
11985;BME280;6052;53.246;10.368;2024-02-26T02:49:59;99893.75;;;5.13;100.00
11985;BME280;6052;53.246;10.368;2024-02-26T02:52:31;99894.06;;;5.23;100.00
11985;BME280;6052;53.246;10.368;2024-02-26T02:55:01;99893.22;;;5.23;100.00
11985;BME280;6052;53.246;10.368;2024-02-26T02:57:31;99900.91;;;5.13;100.00
11985;BME280;6052;53.246;10.368;2024-02-26T03:00:09;99899.28;;;5.12;100.00
11985;BME280;6052;53.246;10.368;2024-02-26T03:02:39;99905.78;;;4.98;100.00
11985;BME280;6052;53.246;10.368;2024-02-26T03:05:09;99901.50;;;4.97;100.00
11985;BME280;6052;53.246;10.368;2024-02-26T03:07:42;99906.00;;;4.78;100.00
11985;BME280;6052;53.246;10.368;2024-02-26T03:10:12;99909.91;;;4.76;100.00
11985;BME280;6052;53.246;10.368;2024-02-26T03:12:41;99905.47;;;4.63;100.00
11985;BME280;6052;53.246;10.368;2024-02-26T03:15:11;99910.81;;;4.63;100.00
11985;BME280;6052;53.246;10.368;2024-02-26T03:17:41;99914.13;;;4.59;100.00
11985;BME280;6052;53.246;10.368;2024-02-26T03:20:11;99918.84;;;4.57;100.00
11985;BME280;6052;53.246;10.368;2024-02-26T03:22:44;99928.94;;;4.73;100.00
11985;BME280;6052;53.246;10.368;2024-02-26T03:25:13;99918.19;;;4.61;100.00
11985;BME280;6052;53.246;10.368;2024-02-26T03:27:43;99922.34;;;4.51;100.00
11985;BME280;6052;53.246;10.368;2024-02-26T03:30:13;99919.97;;;4.67;100.00
11985;BME280;6052;53.246;10.368;2024-02-26T03:32:43;99923.34;;;4.81;100.00
11985;BME280;6052;53.246;10.368;2024-02-26T03:35:14;99924.81;;;4.77;100.00
11985;BME280;6052;53.246;10.368;2024-02-26T03:37:48;99926.38;;;4.60;100.00
11985;BME280;6052;53.246;10.368;2024-02-26T03:40:18;99932.00;;;4.70;100.00
11985;BME280;6052;53.246;10.368;2024-02-26T03:42:48;99931.78;;;4.71;100.00
11985;BME280;6052;53.246;10.368;2024-02-26T03:45:19;99934.84;;;4.50;100.00
11985;BME280;6052;53.246;10.368;2024-02-26T03:47:49;99945.69;;;4.49;100.00
11985;BME280;6052;53.246;10.368;2024-02-26T03:50:19;99942.16;;;4.55;100.00
11985;BME280;6052;53.246;10.368;2024-02-26T03:52:52;99949.31;;;4.54;100.00
11985;BME280;6052;53.246;10.368;2024-02-26T03:55:22;99946.91;;;4.71;100.00
11985;BME280;6052;53.246;10.368;2024-02-26T03:57:52;99960.78;;;4.48;100.00
11985;BME280;6052;53.246;10.368;2024-02-26T04:00:22;99964.31;;;4.42;100.00
11985;BME280;6052;53.246;10.368;2024-02-26T04:02:53;99957.75;;;4.45;100.00
11985;BME280;6052;53.246;10.368;2024-02-26T04:05:23;99967.69;;;4.56;100.00
11985;BME280;6052;53.246;10.368;2024-02-26T04:07:55;99964.44;;;4.54;100.00
11985;BME280;6052;53.246;10.368;2024-02-26T04:10:25;99971.59;;;4.53;100.00
11985;BME280;6052;53.246;10.368;2024-02-26T04:12:55;99979.50;;;4.60;100.00
11985;BME280;6052;53.246;10.368;2024-02-26T04:15:25;99985.63;;;4.67;100.00
11985;BME280;6052;53.246;10.368;2024-02-26T04:17:55;99980.56;;;4.59;100.00
11985;BME280;6052;53.246;10.368;2024-02-26T04:20:25;99987.69;;;4.58;100.00
11985;BME280;6052;53.246;10.368;2024-02-26T04:22:57;99979.31;;;4.61;100.00
11985;BME280;6052;53.246;10.368;2024-02-26T04:25:27;99984.03;;;4.59;100.00
11985;BME280;6052;53.246;10.368;2024-02-26T04:27:56;99981.13;;;4.61;100.00
11985;BME280;6052;53.246;10.368;2024-02-26T04:30:26;99980.38;;;4.54;100.00
11985;BME280;6052;53.246;10.368;2024-02-26T04:32:56;99984.41;;;4.63;100.00
11985;BME280;6052;53.246;10.368;2024-02-26T04:35:26;99995.84;;;4.63;100.00
11985;BME280;6052;53.246;10.368;2024-02-26T04:37:58;99992.00;;;4.59;100.00
11985;BME280;6052;53.246;10.368;2024-02-26T04:40:28;99995.22;;;4.37;100.00
11985;BME280;6052;53.246;10.368;2024-02-26T04:42:57;100000.44;;;4.50;100.00
11985;BME280;6052;53.246;10.368;2024-02-26T04:45:27;100007.72;;;4.61;100.00
11985;BME280;6052;53.246;10.368;2024-02-26T04:47:57;100011.06;;;4.50;100.00
11985;BME280;6052;53.246;10.368;2024-02-26T04:50:27;100020.91;;;4.49;100.00
11985;BME280;6052;53.246;10.368;2024-02-26T04:52:59;100010.44;;;4.54;100.00
11985;BME280;6052;53.246;10.368;2024-02-26T04:55:29;100015.59;;;4.49;100.00
11985;BME280;6052;53.246;10.368;2024-02-26T04:57:59;100013.94;;;4.48;100.00
11985;BME280;6052;53.246;10.368;2024-02-26T05:00:29;100018.16;;;4.56;100.00
11985;BME280;6052;53.246;10.368;2024-02-26T05:02:59;100016.38;;;4.50;100.00
11985;BME280;6052;53.246;10.368;2024-02-26T05:05:29;100021.59;;;4.32;100.00
11985;BME280;6052;53.246;10.368;2024-02-26T05:08:01;100024.22;;;4.38;100.00
11985;BME280;6052;53.246;10.368;2024-02-26T05:10:31;100021.34;;;4.40;100.00
11985;BME280;6052;53.246;10.368;2024-02-26T05:13:01;100027.09;;;4.37;100.00
11985;BME280;6052;53.246;10.368;2024-02-26T05:15:31;100021.91;;;4.11;100.00
11985;BME280;6052;53.246;10.368;2024-02-26T05:18:00;100030.31;;;4.08;100.00
11985;BME280;6052;53.246;10.368;2024-02-26T05:20:30;100031.50;;;4.12;100.00
11985;BME280;6052;53.246;10.368;2024-02-26T05:23:04;100035.75;;;4.19;100.00
11985;BME280;6052;53.246;10.368;2024-02-26T05:25:34;100038.59;;;4.24;100.00
11985;BME280;6052;53.246;10.368;2024-02-26T05:28:04;100035.81;;;4.13;100.00
11985;BME280;6052;53.246;10.368;2024-02-26T05:30:34;100041.91;;;4.20;100.00
11985;BME280;6052;53.246;10.368;2024-02-26T05:33:06;100041.69;;;4.21;100.00
11985;BME280;6052;53.246;10.368;2024-02-26T05:35:39;100043.59;;;4.08;100.00
11985;BME280;6052;53.246;10.368;2024-02-26T05:38:11;100046.97;;;4.28;100.00
11985;BME280;6052;53.246;10.368;2024-02-26T05:40:41;100044.41;;;4.08;100.00
11985;BME280;6052;53.246;10.368;2024-02-26T05:43:12;100038.47;;;4.13;100.00
11985;BME280;6052;53.246;10.368;2024-02-26T05:45:43;100041.50;;;4.16;100.00
11985;BME280;6052;53.246;10.368;2024-02-26T05:48:13;100041.69;;;4.21;100.00
11985;BME280;6052;53.246;10.368;2024-02-26T05:50:43;100042.13;;;4.12;100.00
11985;BME280;6052;53.246;10.368;2024-02-26T05:53:15;100047.78;;;4.22;100.00
11985;BME280;6052;53.246;10.368;2024-02-26T05:55:45;100046.00;;;4.16;100.00
11985;BME280;6052;53.246;10.368;2024-02-26T05:58:15;100052.75;;;4.12;100.00
11985;BME280;6052;53.246;10.368;2024-02-26T06:00:44;100061.19;;;3.96;100.00
11985;BME280;6052;53.246;10.368;2024-02-26T06:03:14;100061.88;;;4.29;100.00
11985;BME280;6052;53.246;10.368;2024-02-26T06:05:44;100056.78;;;4.27;100.00
11985;BME280;6052;53.246;10.368;2024-02-26T06:08:17;100066.28;;;3.97;100.00
11985;BME280;6052;53.246;10.368;2024-02-26T06:10:47;100068.00;;;3.72;100.00
11985;BME280;6052;53.246;10.368;2024-02-26T06:13:16;100070.03;;;3.77;100.00
11985;BME280;6052;53.246;10.368;2024-02-26T06:15:46;100069.03;;;3.71;100.00
11985;BME280;6052;53.246;10.368;2024-02-26T06:18:15;100063.38;;;3.55;100.00
11985;BME280;6052;53.246;10.368;2024-02-26T06:20:45;100072.53;;;3.59;100.00
11985;BME280;6052;53.246;10.368;2024-02-26T06:23:18;100069.63;;;3.80;100.00
11985;BME280;6052;53.246;10.368;2024-02-26T06:25:48;100069.34;;;4.01;100.00
11985;BME280;6052;53.246;10.368;2024-02-26T06:28:18;100083.13;;;3.65;100.00
11985;BME280;6052;53.246;10.368;2024-02-26T06:30:47;100087.44;;;3.66;100.00
11985;BME280;6052;53.246;10.368;2024-02-26T06:33:17;100084.72;;;3.79;100.00
11985;BME280;6052;53.246;10.368;2024-02-26T06:35:47;100092.66;;;3.86;100.00
11985;BME280;6052;53.246;10.368;2024-02-26T06:38:19;100085.78;;;3.65;100.00
11985;BME280;6052;53.246;10.368;2024-02-26T06:40:49;100082.53;;;3.44;100.00
11985;BME280;6052;53.246;10.368;2024-02-26T06:43:19;100094.09;;;3.82;100.00
11985;BME280;6052;53.246;10.368;2024-02-26T06:45:48;100087.56;;;3.84;100.00
11985;BME280;6052;53.246;10.368;2024-02-26T06:48:18;100083.38;;;3.51;100.00
11985;BME280;6052;53.246;10.368;2024-02-26T06:50:48;100084.78;;;3.53;100.00
11985;BME280;6052;53.246;10.368;2024-02-26T06:53:20;100092.31;;;3.63;100.00
11985;BME280;6052;53.246;10.368;2024-02-26T06:55:50;100090.22;;;3.78;100.00
11985;BME280;6052;53.246;10.368;2024-02-26T06:58:17;100098.03;;;3.60;100.00
11985;BME280;6052;53.246;10.368;2024-02-26T07:00:47;100100.81;;;3.97;100.00
11985;BME280;6052;53.246;10.368;2024-02-26T07:03:17;100097.50;;;4.02;100.00
11985;BME280;6052;53.246;10.368;2024-02-26T07:05:47;100101.69;;;3.78;100.00
11985;BME280;6052;53.246;10.368;2024-02-26T07:08:20;100103.75;;;3.70;100.00
11985;BME280;6052;53.246;10.368;2024-02-26T07:10:50;100118.56;;;4.03;100.00
11985;BME280;6052;53.246;10.368;2024-02-26T07:13:19;100124.38;;;3.55;100.00
11985;BME280;6052;53.246;10.368;2024-02-26T07:15:50;100115.31;;;3.95;100.00
11985;BME280;6052;53.246;10.368;2024-02-26T07:18:19;100120.44;;;3.77;100.00
11985;BME280;6052;53.246;10.368;2024-02-26T07:20:49;100129.81;;;3.86;100.00
11985;BME280;6052;53.246;10.368;2024-02-26T07:23:22;100126.13;;;3.93;100.00
11985;BME280;6052;53.246;10.368;2024-02-26T07:25:51;100128.41;;;3.70;100.00
11985;BME280;6052;53.246;10.368;2024-02-26T07:28:21;100129.81;;;3.86;100.00
11985;BME280;6052;53.246;10.368;2024-02-26T07:30:51;100125.19;;;3.62;100.00
11985;BME280;6052;53.246;10.368;2024-02-26T07:33:20;100127.63;;;3.70;100.00
11985;BME280;6052;53.246;10.368;2024-02-26T07:35:51;100143.28;;;3.91;100.00
11985;BME280;6052;53.246;10.368;2024-02-26T07:38:23;100142.91;;;3.87;100.00
11985;BME280;6052;53.246;10.368;2024-02-26T07:41:08;100141.69;;;3.83;100.00
11985;BME280;6052;53.246;10.368;2024-02-26T07:43:38;100151.47;;;3.89;100.00
11985;BME280;6052;53.246;10.368;2024-02-26T07:46:07;100157.91;;;4.19;100.00
11985;BME280;6052;53.246;10.368;2024-02-26T07:48:40;100164.91;;;4.14;100.00
11985;BME280;6052;53.246;10.368;2024-02-26T07:51:12;100158.56;;;4.08;100.00
11985;BME280;6052;53.246;10.368;2024-02-26T07:53:45;100171.84;;;4.02;100.00
11985;BME280;6052;53.246;10.368;2024-02-26T07:56:15;100166.50;;;4.28;100.00
11985;BME280;6052;53.246;10.368;2024-02-26T07:58:45;100166.50;;;4.28;100.00
11985;BME280;6052;53.246;10.368;2024-02-26T08:01:14;100171.81;;;4.28;100.00
11985;BME280;6052;53.246;10.368;2024-02-26T08:03:44;100170.81;;;4.16;100.00
11985;BME280;6052;53.246;10.368;2024-02-26T08:06:14;100187.19;;;4.06;100.00
11985;BME280;6052;53.246;10.368;2024-02-26T08:08:46;100189.78;;;4.19;100.00
11985;BME280;6052;53.246;10.368;2024-02-26T08:11:16;100187.78;;;4.08;100.00
11985;BME280;6052;53.246;10.368;2024-02-26T08:13:46;100191.06;;;4.04;100.00
11985;BME280;6052;53.246;10.368;2024-02-26T08:16:16;100191.81;;;4.24;100.00
11985;BME280;6052;53.246;10.368;2024-02-26T08:18:46;100198.13;;;4.36;100.00
11985;BME280;6052;53.246;10.368;2024-02-26T08:21:15;100203.69;;;4.21;100.00
11985;BME280;6052;53.246;10.368;2024-02-26T08:23:48;100205.75;;;4.13;100.00
11985;BME280;6052;53.246;10.368;2024-02-26T08:26:18;100210.41;;;4.24;100.00
11985;BME280;6052;53.246;10.368;2024-02-26T08:28:49;100198.84;;;3.99;100.00
11985;BME280;6052;53.246;10.368;2024-02-26T08:31:19;100208.22;;;3.88;100.00
11985;BME280;6052;53.246;10.368;2024-02-26T08:33:50;100197.59;;;3.88;100.00
11985;BME280;6052;53.246;10.368;2024-02-26T08:36:20;100194.97;;;3.62;100.00
11985;BME280;6052;53.246;10.368;2024-02-26T08:38:52;100198.44;;;3.69;100.00
11985;BME280;6052;53.246;10.368;2024-02-26T08:41:22;100192.09;;;3.83;100.00
11985;BME280;6052;53.246;10.368;2024-02-26T08:43:52;100193.13;;;3.69;100.00
11985;BME280;6052;53.246;10.368;2024-02-26T08:46:22;100190.88;;;3.73;100.00
11985;BME280;6052;53.246;10.368;2024-02-26T08:48:51;100193.13;;;3.89;100.00
11985;BME280;6052;53.246;10.368;2024-02-26T08:51:21;100195.16;;;3.80;100.00
11985;BME280;6052;53.246;10.368;2024-02-26T08:53:54;100199.25;;;3.63;100.00
11985;BME280;6052;53.246;10.368;2024-02-26T08:56:23;100199.03;;;3.84;100.00
11985;BME280;6052;53.246;10.368;2024-02-26T08:58:54;100201.28;;;3.74;100.00
11985;BME280;6052;53.246;10.368;2024-02-26T09:01:26;100204.16;;;3.86;100.00
11985;BME280;6052;53.246;10.368;2024-02-26T09:03:55;100202.09;;;3.88;100.00
11985;BME280;6052;53.246;10.368;2024-02-26T09:06:25;100206.19;;;3.77;100.00
11985;BME280;6052;53.246;10.368;2024-02-26T09:08:59;100208.03;;;3.90;100.00
11985;BME280;6052;53.246;10.368;2024-02-26T09:11:30;100210.69;;;3.96;100.00
11985;BME280;6052;53.246;10.368;2024-02-26T09:14:00;100217.41;;;3.92;100.00
11985;BME280;6052;53.246;10.368;2024-02-26T09:16:30;100212.09;;;3.92;100.00
11985;BME280;6052;53.246;10.368;2024-02-26T09:19:00;100212.91;;;4.06;100.00
11985;BME280;6052;53.246;10.368;2024-02-26T09:21:30;100214.75;;;3.86;100.00
11985;BME280;6052;53.246;10.368;2024-02-26T09:24:03;100208.41;;;4.00;100.00
11985;BME280;6052;53.246;10.368;2024-02-26T09:26:34;100220.03;;;4.12;100.00
11985;BME280;6052;53.246;10.368;2024-02-26T09:29:03;100219.22;;;4.11;100.00
11985;BME280;6052;53.246;10.368;2024-02-26T09:31:35;100226.34;;;4.30;100.00
11985;BME280;6052;53.246;10.368;2024-02-26T09:34:06;100227.97;;;4.25;100.00
11985;BME280;6052;53.246;10.368;2024-02-26T09:36:36;100230.63;;;4.31;100.00
11985;BME280;6052;53.246;10.368;2024-02-26T09:39:09;100227.78;;;4.20;100.00
11985;BME280;6052;53.246;10.368;2024-02-26T09:41:39;100239.25;;;4.20;100.00
11985;BME280;6052;53.246;10.368;2024-02-26T09:44:09;100240.63;;;4.29;100.00
11985;BME280;6052;53.246;10.368;2024-02-26T09:46:39;100238.41;;;4.26;100.00
11985;BME280;6052;53.246;10.368;2024-02-26T09:49:10;100241.44;;;4.30;100.00
11985;BME280;6052;53.246;10.368;2024-02-26T09:51:41;100250.66;;;4.34;100.00
11985;BME280;6052;53.246;10.368;2024-02-26T09:54:15;100249.59;;;4.41;100.00
11985;BME280;6052;53.246;10.368;2024-02-26T09:56:48;100253.50;;;4.39;100.00
11985;BME280;6052;53.246;10.368;2024-02-26T09:59:35;100251.22;;;4.55;100.00
11985;BME280;6052;53.246;10.368;2024-02-26T10:02:09;100254.72;;;4.43;100.00
11985;BME280;6052;53.246;10.368;2024-02-26T10:04:41;100251.81;;;4.57;100.00
11985;BME280;6052;53.246;10.368;2024-02-26T10:07:17;100264.28;;;4.57;100.00
11985;BME280;6052;53.246;10.368;2024-02-26T10:09:50;100265.44;;;4.80;100.00
11985;BME280;6052;53.246;10.368;2024-02-26T10:12:20;100263.59;;;4.81;100.00
11985;BME280;6052;53.246;10.368;2024-02-26T10:14:52;100263.34;;;4.89;100.00
11985;BME280;6052;53.246;10.368;2024-02-26T10:17:22;100267.69;;;4.83;100.00
11985;BME280;6052;53.246;10.368;2024-02-26T10:19:52;100269.03;;;4.99;100.00
11985;BME280;6052;53.246;10.368;2024-02-26T10:22:23;100275.00;;;4.94;100.00
11985;BME280;6052;53.246;10.368;2024-02-26T10:24:55;100277.53;;;5.14;100.00
11985;BME280;6052;53.246;10.368;2024-02-26T10:27:25;100277.78;;;5.12;100.00
11985;BME280;6052;53.246;10.368;2024-02-26T10:29:56;100281.72;;;5.03;100.00
11985;BME280;6052;53.246;10.368;2024-02-26T10:32:26;100275.91;;;5.19;100.00
11985;BME280;6052;53.246;10.368;2024-02-26T10:34:56;100280.53;;;5.30;100.00
11985;BME280;6052;53.246;10.368;2024-02-26T10:37:26;100288.84;;;5.47;100.00
11985;BME280;6052;53.246;10.368;2024-02-26T10:39:58;100285.78;;;5.43;100.00
11985;BME280;6052;53.246;10.368;2024-02-26T10:42:30;100287.41;;;5.44;100.00
11985;BME280;6052;53.246;10.368;2024-02-26T10:45:00;100292.88;;;5.56;100.00
11985;BME280;6052;53.246;10.368;2024-02-26T10:47:30;100284.06;;;5.55;100.00
11985;BME280;6052;53.246;10.368;2024-02-26T10:50:01;100290.13;;;5.69;100.00
11985;BME280;6052;53.246;10.368;2024-02-26T10:52:32;100291.47;;;5.78;100.00
11985;BME280;6052;53.246;10.368;2024-02-26T10:55:05;100290.06;;;5.82;100.00
11985;BME280;6052;53.246;10.368;2024-02-26T10:57:39;100284.28;;;5.91;100.00
11985;BME280;6052;53.246;10.368;2024-02-26T11:00:14;100286.72;;;5.93;100.00
11985;BME280;6052;53.246;10.368;2024-02-26T11:02:45;100287.38;;;6.13;100.00
11985;BME280;6052;53.246;10.368;2024-02-26T11:05:17;100295.03;;;6.03;100.00
11985;BME280;6052;53.246;10.368;2024-02-26T11:07:47;100290.50;;;6.28;100.00
11985;BME280;6052;53.246;10.368;2024-02-26T11:10:21;100290.09;;;6.49;100.00
11985;BME280;6052;53.246;10.368;2024-02-26T11:12:54;100291.94;;;6.48;100.00
11985;BME280;6052;53.246;10.368;2024-02-26T11:15:24;100292.34;;;6.52;100.00
11985;BME280;6052;53.246;10.368;2024-02-26T11:17:55;100292.53;;;6.50;100.00
11985;BME280;6052;53.246;10.368;2024-02-26T11:20:28;100296.34;;;6.79;100.00
11985;BME280;6052;53.246;10.368;2024-02-26T11:22:58;100300.63;;;6.62;100.00
11985;BME280;6052;53.246;10.368;2024-02-26T11:25:30;100296.69;;;6.82;100.00
11985;BME280;6052;53.246;10.368;2024-02-26T11:28:05;100292.47;;;6.75;100.00
11985;BME280;6052;53.246;10.368;2024-02-26T11:30:39;100299.28;;;6.89;100.00
11985;BME280;6052;53.246;10.368;2024-02-26T11:33:12;100297.88;;;7.04;100.00
11985;BME280;6052;53.246;10.368;2024-02-26T11:35:43;100299.88;;;7.09;100.00
11985;BME280;6052;53.246;10.368;2024-02-26T11:38:17;100300.00;;;7.14;100.00
11985;BME280;6052;53.246;10.368;2024-02-26T11:40:52;100302.25;;;7.17;100.00
11985;BME280;6052;53.246;10.368;2024-02-26T11:43:23;100300.34;;;7.35;100.00
11985;BME280;6052;53.246;10.368;2024-02-26T11:46:24;100297.75;;;7.29;100.00
11985;BME280;6052;53.246;10.368;2024-02-26T11:48:56;100294.44;;;7.33;100.00
11985;BME280;6052;53.246;10.368;2024-02-26T11:51:31;100292.84;;;7.44;100.00
11985;BME280;6052;53.246;10.368;2024-02-26T11:54:02;100291.03;;;7.56;100.00
11985;BME280;6052;53.246;10.368;2024-02-26T11:56:40;100296.13;;;7.46;100.00
11985;BME280;6052;53.246;10.368;2024-02-26T11:59:10;100305.16;;;7.45;100.00
11985;BME280;6052;53.246;10.368;2024-02-26T12:01:42;100298.97;;;7.62;100.00
11985;BME280;6052;53.246;10.368;2024-02-26T12:04:15;100304.09;;;7.64;100.00
11985;BME280;6052;53.246;10.368;2024-02-26T12:06:50;100310.53;;;7.86;100.00
11985;BME280;6052;53.246;10.368;2024-02-26T12:09:36;100304.63;;;7.95;100.00
11985;BME280;6052;53.246;10.368;2024-02-26T12:12:09;100313.34;;;8.02;100.00
11985;BME280;6052;53.246;10.368;2024-02-26T12:14:50;100311.69;;;7.90;100.00
11985;BME280;6052;53.246;10.368;2024-02-26T12:17:22;100319.50;;;7.91;100.00
11985;BME280;6052;53.246;10.368;2024-02-26T12:19:52;100315.06;;;7.97;100.00
11985;BME280;6052;53.246;10.368;2024-02-26T12:22:23;100319.63;;;7.96;100.00
11985;BME280;6052;53.246;10.368;2024-02-26T12:24:58;100320.41;;;7.97;100.00
11985;BME280;6052;53.246;10.368;2024-02-26T12:27:32;100323.91;;;7.97;100.00
11985;BME280;6052;53.246;10.368;2024-02-26T12:30:02;100330.91;;;8.10;100.00
11985;BME280;6052;53.246;10.368;2024-02-26T12:32:33;100325.34;;;8.11;100.00
11985;BME280;6052;53.246;10.368;2024-02-26T12:35:05;100324.50;;;8.11;100.00
11985;BME280;6052;53.246;10.368;2024-02-26T12:37:35;100330.09;;;8.09;100.00
11985;BME280;6052;53.246;10.368;2024-02-26T12:40:11;100321.50;;;8.19;100.00
11985;BME280;6052;53.246;10.368;2024-02-26T12:42:43;100332.88;;;8.14;100.00
11985;BME280;6052;53.246;10.368;2024-02-26T12:45:13;100333.72;;;8.15;100.00
11985;BME280;6052;53.246;10.368;2024-02-26T12:47:45;100330.06;;;8.39;100.00
11985;BME280;6052;53.246;10.368;2024-02-26T12:50:16;100338.09;;;8.09;100.00
11985;BME280;6052;53.246;10.368;2024-02-26T12:52:47;100340.84;;;8.32;100.00
11985;BME280;6052;53.246;10.368;2024-02-26T12:55:18;100344.81;;;8.41;100.00
11985;BME280;6052;53.246;10.368;2024-02-26T12:57:52;100348.88;;;8.44;100.00
11985;BME280;6052;53.246;10.368;2024-02-26T13:00:23;100349.25;;;8.59;100.00
11985;BME280;6052;53.246;10.368;2024-02-26T13:02:55;100348.41;;;8.70;100.00
11985;BME280;6052;53.246;10.368;2024-02-26T13:05:26;100344.00;;;8.41;100.00
11985;BME280;6052;53.246;10.368;2024-02-26T13:07:56;100355.16;;;8.61;100.00
11985;BME280;6052;53.246;10.368;2024-02-26T13:10:26;100356.00;;;8.73;100.00
11985;BME280;6052;53.246;10.368;2024-02-26T13:13:01;100357.03;;;8.49;100.00